sensor_id;sensor_type;location;lat;lon;timestamp;pressure;altitude;pressure_sealevel;temperature;humidity
74722;BME280;63470;49.826;6.740;2022-12-18T00:01:36;101456.43;;;-7.14;69.22
74722;BME280;63470;49.826;6.740;2022-12-18T00:04:11;101452.16;;;-7.23;69.15
74722;BME280;63470;49.826;6.740;2022-12-18T00:06:37;101452.95;;;-7.32;69.14
74722;BME280;63470;49.826;6.740;2022-12-18T00:09:08;101450.85;;;-7.41;69.14
74722;BME280;63470;49.826;6.740;2022-12-18T00:11:38;101452.31;;;-7.47;69.14
74722;BME280;63470;49.826;6.740;2022-12-18T00:14:11;101450.42;;;-7.53;69.08
74722;BME280;63470;49.826;6.740;2022-12-18T00:16:39;101461.08;;;-7.60;69.07
74722;BME280;63470;49.826;6.740;2022-12-18T00:19:09;101465.79;;;-7.68;69.09
74722;BME280;63470;49.826;6.740;2022-12-18T00:21:40;101466.19;;;-7.72;69.17
74722;BME280;63470;49.826;6.740;2022-12-18T00:24:11;101458.43;;;-7.70;69.10
74722;BME280;63470;49.826;6.740;2022-12-18T00:26:41;101450.17;;;-7.70;69.03
74722;BME280;63470;49.826;6.740;2022-12-18T00:29:13;101444.17;;;-7.69;68.97
74722;BME280;63470;49.826;6.740;2022-12-18T00:31:42;101445.25;;;-7.70;68.93
74722;BME280;63470;49.826;6.740;2022-12-18T00:34:12;101445.61;;;-7.70;68.95
74722;BME280;63470;49.826;6.740;2022-12-18T00:36:42;101440.37;;;-7.67;68.94
74722;BME280;63470;49.826;6.740;2022-12-18T00:39:13;101442.23;;;-7.63;68.89
74722;BME280;63470;49.826;6.740;2022-12-18T00:42:20;101435.39;;;-7.63;68.87
74722;BME280;63470;49.826;6.740;2022-12-18T00:44:16;101438.61;;;-7.65;68.88
74722;BME280;63470;49.826;6.740;2022-12-18T00:46:44;101439.73;;;-7.67;68.91
74722;BME280;63470;49.826;6.740;2022-12-18T00:49:16;101441.75;;;-7.66;68.93
74722;BME280;63470;49.826;6.740;2022-12-18T00:51:44;101444.08;;;-7.68;68.94
74722;BME280;63470;49.826;6.740;2022-12-18T00:54:16;101441.41;;;-7.72;68.92
74722;BME280;63470;49.826;6.740;2022-12-18T00:56:45;101438.42;;;-7.75;68.98
74722;BME280;63470;49.826;6.740;2022-12-18T00:59:17;101439.24;;;-7.81;68.97
74722;BME280;63470;49.826;6.740;2022-12-18T01:01:47;101436.71;;;-7.91;68.97
74722;BME280;63470;49.826;6.740;2022-12-18T01:04:17;101432.67;;;-7.99;69.00
74722;BME280;63470;49.826;6.740;2022-12-18T01:06:48;101430.28;;;-8.07;69.04
74722;BME280;63470;49.826;6.740;2022-12-18T01:09:19;101427.19;;;-8.07;69.04
74722;BME280;63470;49.826;6.740;2022-12-18T01:11:49;101428.20;;;-8.04;68.96
74722;BME280;63470;49.826;6.740;2022-12-18T01:14:20;101440.48;;;-8.04;68.81
74722;BME280;63470;49.826;6.740;2022-12-18T01:16:51;101446.15;;;-8.07;68.76
74722;BME280;63470;49.826;6.740;2022-12-18T01:19:21;101456.50;;;-8.06;68.72
74722;BME280;63470;49.826;6.740;2022-12-18T01:21:52;101458.73;;;-8.04;68.67
74722;BME280;63470;49.826;6.740;2022-12-18T01:24:22;101458.62;;;-8.06;68.62
74722;BME280;63470;49.826;6.740;2022-12-18T01:26:53;101467.93;;;-8.09;68.61
74722;BME280;63470;49.826;6.740;2022-12-18T01:29:23;101471.34;;;-8.10;68.60
74722;BME280;63470;49.826;6.740;2022-12-18T01:31:55;101467.17;;;-8.08;68.56
74722;BME280;63470;49.826;6.740;2022-12-18T01:34:24;101453.52;;;-8.08;68.48
74722;BME280;63470;49.826;6.740;2022-12-18T01:36:54;101453.46;;;-8.08;68.40
74722;BME280;63470;49.826;6.740;2022-12-18T01:39:25;101454.95;;;-8.09;68.37
74722;BME280;63470;49.826;6.740;2022-12-18T01:42:09;101447.38;;;-8.14;68.37
74722;BME280;63470;49.826;6.740;2022-12-18T01:46:56;101448.23;;;-8.28;68.40
74722;BME280;63470;49.826;6.740;2022-12-18T01:49:27;101448.23;;;-8.32;68.34
74722;BME280;63470;49.826;6.740;2022-12-18T01:51:58;101445.00;;;-8.37;68.37
74722;BME280;63470;49.826;6.740;2022-12-18T01:54:28;101443.81;;;-8.41;68.32
74722;BME280;63470;49.826;6.740;2022-12-18T01:56:59;101445.89;;;-8.44;68.41
74722;BME280;63470;49.826;6.740;2022-12-18T01:59:32;101440.45;;;-8.47;68.44
74722;BME280;63470;49.826;6.740;2022-12-18T02:02:02;101439.17;;;-8.48;68.43
74722;BME280;63470;49.826;6.740;2022-12-18T02:04:31;101445.48;;;-8.51;68.36
74722;BME280;63470;49.826;6.740;2022-12-18T02:07:10;101446.55;;;-8.53;68.35
74722;BME280;63470;49.826;6.740;2022-12-18T02:12:20;101446.11;;;-8.56;68.25
74722;BME280;63470;49.826;6.740;2022-12-18T02:14:59;101444.52;;;-8.63;68.18
74722;BME280;63470;49.826;6.740;2022-12-18T02:17:13;101441.00;;;-8.71;68.18
74722;BME280;63470;49.826;6.740;2022-12-18T02:27:08;101423.48;;;-8.86;68.14
74722;BME280;63470;49.826;6.740;2022-12-18T02:29:46;101421.83;;;-8.88;68.23
74722;BME280;63470;49.826;6.740;2022-12-18T02:32:12;101415.97;;;-8.86;68.17
74722;BME280;63470;49.826;6.740;2022-12-18T02:34:39;101425.40;;;-8.86;68.00
74722;BME280;63470;49.826;6.740;2022-12-18T02:37:12;101424.39;;;-8.86;67.92
74722;BME280;63470;49.826;6.740;2022-12-18T02:39:42;101412.94;;;-8.84;67.83
74722;BME280;63470;49.826;6.740;2022-12-18T02:42:10;101411.12;;;-8.86;67.70
74722;BME280;63470;49.826;6.740;2022-12-18T02:44:47;101411.81;;;-8.88;67.70
74722;BME280;63470;49.826;6.740;2022-12-18T02:47:15;101416.83;;;-8.91;67.64
74722;BME280;63470;49.826;6.740;2022-12-18T03:00:08;101424.84;;;-9.04;67.76
74722;BME280;63470;49.826;6.740;2022-12-18T03:02:26;101423.84;;;-8.99;67.65
74722;BME280;63470;49.826;6.740;2022-12-18T03:04:57;101424.12;;;-8.95;67.57
74722;BME280;63470;49.826;6.740;2022-12-18T03:07:18;101426.09;;;-8.93;67.50
74722;BME280;63470;49.826;6.740;2022-12-18T03:09:49;101428.72;;;-8.89;67.44
74722;BME280;63470;49.826;6.740;2022-12-18T03:12:34;101436.22;;;-8.88;67.36
74722;BME280;63470;49.826;6.740;2022-12-18T03:14:47;101435.62;;;-8.90;67.32
74722;BME280;63470;49.826;6.740;2022-12-18T03:17:19;101440.38;;;-8.90;67.34
74722;BME280;63470;49.826;6.740;2022-12-18T03:19:48;101447.53;;;-8.91;67.31
74722;BME280;63470;49.826;6.740;2022-12-18T03:22:18;101443.57;;;-8.99;67.27
74722;BME280;63470;49.826;6.740;2022-12-18T03:24:48;101440.84;;;-9.05;67.28
74722;BME280;63470;49.826;6.740;2022-12-18T03:27:20;101432.24;;;-9.15;67.29
74722;BME280;63470;49.826;6.740;2022-12-18T03:29:53;101426.36;;;-9.23;67.40
74722;BME280;63470;49.826;6.740;2022-12-18T03:32:33;101420.20;;;-9.31;67.54
74722;BME280;63470;49.826;6.740;2022-12-18T03:34:51;101416.73;;;-9.38;67.64
74722;BME280;63470;49.826;6.740;2022-12-18T03:37:20;101421.58;;;-9.42;67.67
74722;BME280;63470;49.826;6.740;2022-12-18T03:39:51;101409.72;;;-9.47;67.74
74722;BME280;63470;49.826;6.740;2022-12-18T03:42:29;101410.59;;;-9.43;67.74
74722;BME280;63470;49.826;6.740;2022-12-18T03:44:57;101411.84;;;-9.33;67.67
74722;BME280;63470;49.826;6.740;2022-12-18T03:47:31;101414.11;;;-9.23;67.48
74722;BME280;63470;49.826;6.740;2022-12-18T03:50:16;101411.34;;;-9.16;67.20
74722;BME280;63470;49.826;6.740;2022-12-18T03:52:41;101408.69;;;-9.14;67.08
74722;BME280;63470;49.826;6.740;2022-12-18T03:54:56;101412.20;;;-9.13;66.98
74722;BME280;63470;49.826;6.740;2022-12-18T03:57:27;101412.27;;;-9.15;66.91
74722;BME280;63470;49.826;6.740;2022-12-18T03:59:57;101413.84;;;-9.23;66.88
74722;BME280;63470;49.826;6.740;2022-12-18T04:02:25;101412.98;;;-9.30;66.92
74722;BME280;63470;49.826;6.740;2022-12-18T04:04:59;101413.53;;;-9.34;67.03
74722;BME280;63470;49.826;6.740;2022-12-18T04:07:27;101407.36;;;-9.40;67.07
74722;BME280;63470;49.826;6.740;2022-12-18T04:09:59;101412.06;;;-9.47;67.10
74722;BME280;63470;49.826;6.740;2022-12-18T04:12:29;101413.06;;;-9.53;67.19
74722;BME280;63470;49.826;6.740;2022-12-18T04:14:58;101406.77;;;-9.56;67.24
74722;BME280;63470;49.826;6.740;2022-12-18T04:17:29;101396.83;;;-9.51;67.28
74722;BME280;63470;49.826;6.740;2022-12-18T04:19:59;101398.56;;;-9.46;67.06
74722;BME280;63470;49.826;6.740;2022-12-18T04:25:06;101391.30;;;-9.48;66.86
74722;BME280;63470;49.826;6.740;2022-12-18T04:27:36;101389.48;;;-9.52;66.79
74722;BME280;63470;49.826;6.740;2022-12-18T04:30:09;101383.72;;;-9.55;66.70
74722;BME280;63470;49.826;6.740;2022-12-18T04:32:37;101385.72;;;-9.61;66.66
74722;BME280;63470;49.826;6.740;2022-12-18T04:35:12;101378.25;;;-9.68;66.71
74722;BME280;63470;49.826;6.740;2022-12-18T04:37:38;101375.73;;;-9.69;66.72
74722;BME280;63470;49.826;6.740;2022-12-18T04:40:09;101382.48;;;-9.73;66.65
74722;BME280;63470;49.826;6.740;2022-12-18T04:42:39;101381.56;;;-9.77;66.70
74722;BME280;63470;49.826;6.740;2022-12-18T04:45:12;101388.43;;;-9.78;66.73
74722;BME280;63470;49.826;6.740;2022-12-18T04:47:42;101399.56;;;-9.78;66.70
74722;BME280;63470;49.826;6.740;2022-12-18T04:50:10;101393.70;;;-9.76;66.71
74722;BME280;63470;49.826;6.740;2022-12-18T04:52:42;101402.23;;;-9.74;66.63
74722;BME280;63470;49.826;6.740;2022-12-18T04:55:06;101405.05;;;-9.73;66.44
74722;BME280;63470;49.826;6.740;2022-12-18T04:57:36;101399.33;;;-9.79;66.42
74722;BME280;63470;49.826;6.740;2022-12-18T05:00:07;101402.07;;;-9.85;66.45
74722;BME280;63470;49.826;6.740;2022-12-18T05:02:37;101401.48;;;-9.88;66.44
74722;BME280;63470;49.826;6.740;2022-12-18T05:05:08;101400.98;;;-9.92;66.38
74722;BME280;63470;49.826;6.740;2022-12-18T05:07:37;101401.50;;;-9.93;66.43
74722;BME280;63470;49.826;6.740;2022-12-18T05:10:08;101408.44;;;-9.92;66.42
74722;BME280;63470;49.826;6.740;2022-12-18T05:12:59;101411.93;;;-9.94;66.27
74722;BME280;63470;49.826;6.740;2022-12-18T05:15:14;101411.60;;;-9.96;66.22
74722;BME280;63470;49.826;6.740;2022-12-18T05:17:45;101418.08;;;-9.97;66.15
74722;BME280;63470;49.826;6.740;2022-12-18T05:20:16;101416.47;;;-10.01;66.08
74722;BME280;63470;49.826;6.740;2022-12-18T05:22:45;101418.26;;;-10.03;66.04
74722;BME280;63470;49.826;6.740;2022-12-18T05:25:19;101419.93;;;-10.03;66.06
74722;BME280;63470;49.826;6.740;2022-12-18T05:27:42;101420.88;;;-10.02;66.07
74722;BME280;63470;49.826;6.740;2022-12-18T05:30:13;101422.97;;;-10.01;66.03
74722;BME280;63470;49.826;6.740;2022-12-18T05:32:43;101424.92;;;-10.01;65.92
74722;BME280;63470;49.826;6.740;2022-12-18T05:35:13;101417.78;;;-10.03;65.89
74722;BME280;63470;49.826;6.740;2022-12-18T05:37:45;101425.73;;;-10.00;65.79
74722;BME280;63470;49.826;6.740;2022-12-18T05:40:14;101429.08;;;-9.99;65.58
74722;BME280;63470;49.826;6.740;2022-12-18T05:42:44;101429.67;;;-10.01;65.44
74722;BME280;63470;49.826;6.740;2022-12-18T05:45:14;101431.45;;;-10.06;65.43
74722;BME280;63470;49.826;6.740;2022-12-18T05:47:50;101441.55;;;-10.12;65.51
74722;BME280;63470;49.826;6.740;2022-12-18T05:50:17;101444.90;;;-10.19;65.67
74722;BME280;63470;49.826;6.740;2022-12-18T05:52:46;101448.06;;;-10.24;65.79
74722;BME280;63470;49.826;6.740;2022-12-18T05:55:17;101445.12;;;-10.26;65.85
74722;BME280;63470;49.826;6.740;2022-12-18T05:57:50;101444.45;;;-10.23;65.84
74722;BME280;63470;49.826;6.740;2022-12-18T06:00:18;101446.97;;;-10.19;65.71
74722;BME280;63470;49.826;6.740;2022-12-18T06:02:48;101441.40;;;-10.17;65.50
74722;BME280;63470;49.826;6.740;2022-12-18T06:05:19;101440.20;;;-10.16;65.48
74722;BME280;63470;49.826;6.740;2022-12-18T06:07:49;101443.75;;;-10.15;65.36
74722;BME280;63470;49.826;6.740;2022-12-18T06:10:26;101444.70;;;-10.18;65.27
74722;BME280;63470;49.826;6.740;2022-12-18T06:12:50;101451.50;;;-10.20;65.31
74722;BME280;63470;49.826;6.740;2022-12-18T06:15:20;101457.98;;;-10.21;65.36
74722;BME280;63470;49.826;6.740;2022-12-18T06:17:51;101454.90;;;-10.19;65.33
74722;BME280;63470;49.826;6.740;2022-12-18T06:20:22;101449.80;;;-10.18;65.12
74722;BME280;63470;49.826;6.740;2022-12-18T06:22:53;101456.48;;;-10.22;65.10
74722;BME280;63470;49.826;6.740;2022-12-18T06:25:23;101453.84;;;-10.26;65.13
74722;BME280;63470;49.826;6.740;2022-12-18T06:27:54;101460.09;;;-10.30;65.15
74722;BME280;63470;49.826;6.740;2022-12-18T06:30:24;101465.28;;;-10.35;65.19
74722;BME280;63470;49.826;6.740;2022-12-18T06:33:00;101460.16;;;-10.36;65.24
74722;BME280;63470;49.826;6.740;2022-12-18T06:35:31;101460.55;;;-10.35;65.13
74722;BME280;63470;49.826;6.740;2022-12-18T06:38:01;101458.49;;;-10.39;65.14
74722;BME280;63470;49.826;6.740;2022-12-18T06:40:32;101462.84;;;-10.40;65.25
74722;BME280;63470;49.826;6.740;2022-12-18T06:42:59;101460.48;;;-10.42;65.22
74722;BME280;63470;49.826;6.740;2022-12-18T06:45:34;101466.31;;;-10.44;65.28
74722;BME280;63470;49.826;6.740;2022-12-18T06:48:00;101467.78;;;-10.46;65.25
74722;BME280;63470;49.826;6.740;2022-12-18T06:50:32;101466.20;;;-10.44;65.25
74722;BME280;63470;49.826;6.740;2022-12-18T06:53:05;101466.50;;;-10.40;65.10
74722;BME280;63470;49.826;6.740;2022-12-18T06:55:28;101474.80;;;-10.34;64.99
74722;BME280;63470;49.826;6.740;2022-12-18T06:57:59;101479.98;;;-10.30;64.84
74722;BME280;63470;49.826;6.740;2022-12-18T07:00:29;101480.29;;;-10.33;64.83
74722;BME280;63470;49.826;6.740;2022-12-18T07:03:00;101477.81;;;-10.37;64.95
74722;BME280;63470;49.826;6.740;2022-12-18T07:05:30;101476.09;;;-10.39;64.91
74722;BME280;63470;49.826;6.740;2022-12-18T07:08:01;101480.61;;;-10.39;64.92
74722;BME280;63470;49.826;6.740;2022-12-18T07:10:31;101490.00;;;-10.34;64.90
74722;BME280;63470;49.826;6.740;2022-12-18T07:13:02;101485.74;;;-10.29;64.82
74722;BME280;63470;49.826;6.740;2022-12-18T07:15:35;101492.20;;;-10.24;64.70
74722;BME280;63470;49.826;6.740;2022-12-18T07:18:07;101489.58;;;-10.21;64.63
74722;BME280;63470;49.826;6.740;2022-12-18T07:20:38;101492.09;;;-10.17;64.58
74722;BME280;63470;49.826;6.740;2022-12-18T07:23:10;101498.95;;;-10.12;64.45
74722;BME280;63470;49.826;6.740;2022-12-18T07:25:37;101506.75;;;-10.13;64.44
74722;BME280;63470;49.826;6.740;2022-12-18T07:28:04;101520.78;;;-10.15;64.51
74722;BME280;63470;49.826;6.740;2022-12-18T07:30:37;101519.48;;;-10.18;64.61
74722;BME280;63470;49.826;6.740;2022-12-18T07:33:05;101522.94;;;-10.19;64.69
74722;BME280;63470;49.826;6.740;2022-12-18T07:35:36;101518.59;;;-10.16;64.70
74722;BME280;63470;49.826;6.740;2022-12-18T07:38:07;101518.78;;;-10.07;64.57
74722;BME280;63470;49.826;6.740;2022-12-18T07:40:37;101515.48;;;-10.02;64.42
74722;BME280;63470;49.826;6.740;2022-12-18T07:43:08;101507.89;;;-9.99;64.43
74722;BME280;63470;49.826;6.740;2022-12-18T07:45:44;101510.34;;;-9.97;64.61
74722;BME280;63470;49.826;6.740;2022-12-18T07:48:16;101510.90;;;-9.93;64.71
74722;BME280;63470;49.826;6.740;2022-12-18T07:50:44;101503.12;;;-9.87;64.83
74722;BME280;63470;49.826;6.740;2022-12-18T07:53:14;101495.08;;;-9.79;64.94
74722;BME280;63470;49.826;6.740;2022-12-18T07:55:43;101493.92;;;-9.68;65.08
74722;BME280;63470;49.826;6.740;2022-12-18T07:58:16;101490.65;;;-9.52;65.19
74722;BME280;63470;49.826;6.740;2022-12-18T08:00:41;101479.80;;;-9.33;65.20
74722;BME280;63470;49.826;6.740;2022-12-18T08:03:17;101481.00;;;-9.11;65.21
74722;BME280;63470;49.826;6.740;2022-12-18T08:05:48;101475.52;;;-8.89;65.19
74722;BME280;63470;49.826;6.740;2022-12-18T08:08:18;101464.03;;;-8.71;65.23
74722;BME280;63470;49.826;6.740;2022-12-18T08:10:47;101460.09;;;-8.55;65.24
74722;BME280;63470;49.826;6.740;2022-12-18T08:13:14;101454.05;;;-8.39;65.41
74722;BME280;63470;49.826;6.740;2022-12-18T08:15:56;101451.97;;;-8.30;65.69
74722;BME280;63470;49.826;6.740;2022-12-18T08:18:15;101444.52;;;-8.21;65.85
74722;BME280;63470;49.826;6.740;2022-12-18T08:20:46;101449.02;;;-8.09;65.95
74722;BME280;63470;49.826;6.740;2022-12-18T08:23:16;101456.47;;;-7.96;65.89
74722;BME280;63470;49.826;6.740;2022-12-18T08:25:47;101461.53;;;-7.86;65.82
74722;BME280;63470;49.826;6.740;2022-12-18T08:28:18;101467.91;;;-7.77;65.75
74722;BME280;63470;49.826;6.740;2022-12-18T08:30:51;101467.14;;;-7.71;65.72
74722;BME280;63470;49.826;6.740;2022-12-18T08:33:18;101460.84;;;-7.68;65.74
74722;BME280;63470;49.826;6.740;2022-12-18T08:35:53;101454.69;;;-7.67;65.82
74722;BME280;63470;49.826;6.740;2022-12-18T08:38:19;101457.14;;;-7.68;65.83
74722;BME280;63470;49.826;6.740;2022-12-18T08:41:01;101459.71;;;-7.66;65.91
74722;BME280;63470;49.826;6.740;2022-12-18T08:43:57;101456.07;;;-7.62;65.92
74722;BME280;63470;49.826;6.740;2022-12-18T08:45:53;101457.59;;;-7.59;65.88
74722;BME280;63470;49.826;6.740;2022-12-18T08:48:21;101455.83;;;-7.60;65.88
74722;BME280;63470;49.826;6.740;2022-12-18T08:51:00;101461.97;;;-7.57;65.96
74722;BME280;63470;49.826;6.740;2022-12-18T08:53:26;101468.95;;;-7.51;66.02
74722;BME280;63470;49.826;6.740;2022-12-18T08:55:58;101466.48;;;-7.36;66.11
74722;BME280;63470;49.826;6.740;2022-12-18T08:58:28;101473.30;;;-7.18;66.06
74722;BME280;63470;49.826;6.740;2022-12-18T09:00:59;101479.16;;;-7.03;66.11
74722;BME280;63470;49.826;6.740;2022-12-18T09:03:29;101491.57;;;-6.87;66.18
74722;BME280;63470;49.826;6.740;2022-12-18T09:05:54;101495.31;;;-6.68;66.24
74722;BME280;63470;49.826;6.740;2022-12-18T09:08:25;101483.97;;;-6.53;66.15
74722;BME280;63470;49.826;6.740;2022-12-18T09:10:56;101489.66;;;-6.42;65.96
74722;BME280;63470;49.826;6.740;2022-12-18T09:13:25;101494.41;;;-6.39;66.02
74722;BME280;63470;49.826;6.740;2022-12-18T09:15:56;101493.73;;;-6.36;66.13
74722;BME280;63470;49.826;6.740;2022-12-18T09:18:26;101491.47;;;-6.28;66.21
74722;BME280;63470;49.826;6.740;2022-12-18T09:20:57;101494.08;;;-6.12;66.39
74722;BME280;63470;49.826;6.740;2022-12-18T09:23:33;101491.78;;;-5.96;66.39
74722;BME280;63470;49.826;6.740;2022-12-18T09:26:03;101481.96;;;-5.88;66.38
74722;BME280;63470;49.826;6.740;2022-12-18T09:28:33;101483.05;;;-5.78;66.45
74722;BME280;63470;49.826;6.740;2022-12-18T09:31:03;101479.31;;;-5.75;66.56
74722;BME280;63470;49.826;6.740;2022-12-18T09:33:32;101482.42;;;-5.65;66.71
74722;BME280;63470;49.826;6.740;2022-12-18T09:36:05;101487.06;;;-5.53;66.72
74722;BME280;63470;49.826;6.740;2022-12-18T09:38:31;101485.33;;;-5.43;66.76
74722;BME280;63470;49.826;6.740;2022-12-18T09:43:40;101476.87;;;-5.25;66.77
74722;BME280;63470;49.826;6.740;2022-12-18T09:46:08;101472.05;;;-5.13;66.78
74722;BME280;63470;49.826;6.740;2022-12-18T09:48:41;101468.20;;;-5.07;66.77
74722;BME280;63470;49.826;6.740;2022-12-18T09:51:12;101467.30;;;-4.92;66.95
74722;BME280;63470;49.826;6.740;2022-12-18T09:53:37;101467.09;;;-4.73;67.00
74722;BME280;63470;49.826;6.740;2022-12-18T09:56:05;101467.36;;;-4.55;67.04
74722;BME280;63470;49.826;6.740;2022-12-18T09:58:46;101467.47;;;-4.45;67.28
74722;BME280;63470;49.826;6.740;2022-12-18T10:01:12;101456.60;;;-4.31;67.51
74722;BME280;63470;49.826;6.740;2022-12-18T10:03:35;101451.88;;;-4.16;67.37
74722;BME280;63470;49.826;6.740;2022-12-18T10:06:15;101447.23;;;-4.08;67.35
74722;BME280;63470;49.826;6.740;2022-12-18T10:09:05;101444.75;;;-3.99;67.53
74722;BME280;63470;49.826;6.740;2022-12-18T10:13:42;101453.17;;;-3.87;68.02
74722;BME280;63470;49.826;6.740;2022-12-18T10:16:24;101457.73;;;-3.77;68.14
74722;BME280;63470;49.826;6.740;2022-12-18T10:21:15;101454.62;;;-3.63;68.21
74722;BME280;63470;49.826;6.740;2022-12-18T10:24:16;101444.26;;;-3.50;68.07
74722;BME280;63470;49.826;6.740;2022-12-18T10:26:11;101441.42;;;-3.36;68.02
74722;BME280;63470;49.826;6.740;2022-12-18T10:28:40;101441.88;;;-3.24;68.07
74722;BME280;63470;49.826;6.740;2022-12-18T10:31:19;101437.98;;;-3.01;68.07
74722;BME280;63470;49.826;6.740;2022-12-18T10:33:42;101428.38;;;-2.85;67.43
74722;BME280;63470;49.826;6.740;2022-12-18T10:36:14;101413.81;;;-2.78;67.18
74722;BME280;63470;49.826;6.740;2022-12-18T10:38:40;101405.04;;;-2.76;67.22
74722;BME280;63470;49.826;6.740;2022-12-18T10:41:23;101397.83;;;-2.76;67.21
74722;BME280;63470;49.826;6.740;2022-12-18T10:43:46;101394.27;;;-2.78;67.26
74722;BME280;63470;49.826;6.740;2022-12-18T10:46:17;101394.90;;;-2.83;67.42
74722;BME280;63470;49.826;6.740;2022-12-18T10:48:54;101392.33;;;-2.82;67.57
74722;BME280;63470;49.826;6.740;2022-12-18T10:51:24;101394.52;;;-2.75;67.50
74722;BME280;63470;49.826;6.740;2022-12-18T10:54:12;101382.30;;;-2.72;67.47
74722;BME280;63470;49.826;6.740;2022-12-18T10:56:19;101383.04;;;-2.72;67.81
74722;BME280;63470;49.826;6.740;2022-12-18T10:58:56;101380.97;;;-2.69;68.30
74722;BME280;63470;49.826;6.740;2022-12-18T11:01:18;101380.29;;;-2.54;68.70
74722;BME280;63470;49.826;6.740;2022-12-18T11:04:01;101373.80;;;-2.40;69.02
74722;BME280;63470;49.826;6.740;2022-12-18T11:06:22;101363.39;;;-2.28;69.20
74722;BME280;63470;49.826;6.740;2022-12-18T11:09:06;101365.06;;;-2.12;69.41
74722;BME280;63470;49.826;6.740;2022-12-18T11:11:22;101363.44;;;-1.92;68.99
74722;BME280;63470;49.826;6.740;2022-12-18T11:14:05;101358.02;;;-1.82;68.55
74722;BME280;63470;49.826;6.740;2022-12-18T11:16:24;101347.69;;;-1.75;68.54
74722;BME280;63470;49.826;6.740;2022-12-18T11:18:54;101348.19;;;-1.68;68.55
74722;BME280;63470;49.826;6.740;2022-12-18T11:21:22;101352.00;;;-1.59;68.67
74722;BME280;63470;49.826;6.740;2022-12-18T11:23:56;101353.95;;;-1.59;68.77
74722;BME280;63470;49.826;6.740;2022-12-18T11:26:33;101348.94;;;-1.56;69.03
74722;BME280;63470;49.826;6.740;2022-12-18T11:29:09;101352.59;;;-1.42;69.29
74722;BME280;63470;49.826;6.740;2022-12-18T11:31:26;101350.84;;;-1.28;69.39
74722;BME280;63470;49.826;6.740;2022-12-18T11:33:59;101353.84;;;-1.14;69.24
74722;BME280;63470;49.826;6.740;2022-12-18T11:36:23;101348.72;;;-1.03;69.11
74722;BME280;63470;49.826;6.740;2022-12-18T11:38:59;101352.12;;;-0.96;68.83
74722;BME280;63470;49.826;6.740;2022-12-18T11:41:45;101347.11;;;-0.86;68.82
74722;BME280;63470;49.826;6.740;2022-12-18T11:44:02;101349.34;;;-0.83;68.72
74722;BME280;63470;49.826;6.740;2022-12-18T11:46:37;101339.20;;;-0.80;68.85
74722;BME280;63470;49.826;6.740;2022-12-18T11:49:01;101332.80;;;-0.68;68.66
74722;BME280;63470;49.826;6.740;2022-12-18T11:51:35;101325.86;;;-0.64;68.35
74722;BME280;63470;49.826;6.740;2022-12-18T11:54:04;101315.39;;;-0.66;67.97
74722;BME280;63470;49.826;6.740;2022-12-18T11:56:35;101314.23;;;-0.77;68.01
74722;BME280;63470;49.826;6.740;2022-12-18T12:14:29;101285.00;;;-0.76;67.92
74722;BME280;63470;49.826;6.740;2022-12-18T12:16:41;101278.39;;;-0.72;67.81
74722;BME280;63470;49.826;6.740;2022-12-18T12:19:45;101273.78;;;-0.72;67.77
74722;BME280;63470;49.826;6.740;2022-12-18T12:21:55;101274.92;;;-0.75;67.84
74722;BME280;63470;49.826;6.740;2022-12-18T12:26:35;101264.48;;;-0.87;68.02
74722;BME280;63470;49.826;6.740;2022-12-18T12:34:33;101248.84;;;-0.95;68.32
74722;BME280;63470;49.826;6.740;2022-12-18T15:49:59;101211.05;;;-2.50;68.58
74722;BME280;63470;49.826;6.740;2022-12-18T15:51:56;101209.05;;;-2.55;68.68
74722;BME280;63470;49.826;6.740;2022-12-18T15:54:28;101214.30;;;-2.62;68.81
74722;BME280;63470;49.826;6.740;2022-12-18T15:57:25;101225.97;;;-2.66;68.85
74722;BME280;63470;49.826;6.740;2022-12-18T15:59:20;101224.59;;;-2.70;68.87
74722;BME280;63470;49.826;6.740;2022-12-18T16:01:51;101223.28;;;-2.73;68.88
74722;BME280;63470;49.826;6.740;2022-12-18T16:04:25;101223.11;;;-2.75;68.83
74722;BME280;63470;49.826;6.740;2022-12-18T16:06:55;101225.72;;;-2.76;68.75
74722;BME280;63470;49.826;6.740;2022-12-18T16:09:26;101224.25;;;-2.79;68.73
74722;BME280;63470;49.826;6.740;2022-12-18T16:11:51;101219.17;;;-2.81;68.77
74722;BME280;63470;49.826;6.740;2022-12-18T16:14:27;101224.26;;;-2.78;68.79
74722;BME280;63470;49.826;6.740;2022-12-18T16:16:54;101223.12;;;-2.72;68.77
74722;BME280;63470;49.826;6.740;2022-12-18T16:19:24;101222.22;;;-2.66;68.72
74722;BME280;63470;49.826;6.740;2022-12-18T16:21:55;101218.09;;;-2.59;68.62
74722;BME280;63470;49.826;6.740;2022-12-18T16:24:26;101211.52;;;-2.52;68.51
74722;BME280;63470;49.826;6.740;2022-12-18T16:26:56;101216.95;;;-2.45;68.43
74722;BME280;63470;49.826;6.740;2022-12-18T16:29:33;101219.81;;;-2.40;68.35
74722;BME280;63470;49.826;6.740;2022-12-18T16:31:59;101212.42;;;-2.36;68.28
74722;BME280;63470;49.826;6.740;2022-12-18T16:34:32;101213.41;;;-2.34;68.25
74722;BME280;63470;49.826;6.740;2022-12-18T16:37:02;101213.53;;;-2.33;68.23
74722;BME280;63470;49.826;6.740;2022-12-18T16:39:32;101204.58;;;-2.34;68.24
74722;BME280;63470;49.826;6.740;2022-12-18T16:42:03;101214.75;;;-2.36;68.25
74722;BME280;63470;49.826;6.740;2022-12-18T16:44:33;101224.09;;;-2.38;68.24
74722;BME280;63470;49.826;6.740;2022-12-18T16:47:07;101234.88;;;-2.41;68.23
74722;BME280;63470;49.826;6.740;2022-12-18T16:49:33;101233.08;;;-2.44;68.27
74722;BME280;63470;49.826;6.740;2022-12-18T16:52:07;101229.29;;;-2.46;68.30
74722;BME280;63470;49.826;6.740;2022-12-18T16:54:34;101225.89;;;-2.47;68.25
74722;BME280;63470;49.826;6.740;2022-12-18T16:57:05;101220.39;;;-2.49;68.29
74722;BME280;63470;49.826;6.740;2022-12-18T16:59:34;101225.08;;;-2.49;68.46
74722;BME280;63470;49.826;6.740;2022-12-18T17:02:14;101239.34;;;-2.45;68.50
74722;BME280;63470;49.826;6.740;2022-12-18T17:04:34;101228.12;;;-2.38;68.42
74722;BME280;63470;49.826;6.740;2022-12-18T17:07:06;101237.56;;;-2.31;68.31
74722;BME280;63470;49.826;6.740;2022-12-18T17:09:35;101227.49;;;-2.26;68.30
74722;BME280;63470;49.826;6.740;2022-12-18T17:12:08;101217.27;;;-2.20;68.35